createdAt,value
2019-04-29T00:00:08.814Z,6.10
2019-04-29T00:02:38.560Z,6.00
2019-04-29T00:05:08.885Z,6.00
2019-04-29T00:07:38.898Z,5.90
2019-04-29T00:10:10.516Z,6.00
2019-04-29T00:12:40.598Z,5.90
2019-04-29T00:15:20.972Z,5.90
2019-04-29T00:17:53.566Z,5.90
2019-04-29T00:20:40.246Z,5.80
2019-04-29T00:23:09.900Z,5.80
2019-04-29T00:25:39.392Z,5.80
2019-04-29T00:28:08.970Z,5.70
2019-04-29T00:30:38.613Z,5.70
2019-04-29T00:33:08.211Z,5.70
2019-04-29T00:35:38.241Z,5.60
2019-04-29T00:38:29.491Z,5.60
2019-04-29T00:41:24.096Z,5.60
2019-04-29T00:43:56.093Z,5.60
2019-04-29T00:46:25.764Z,5.50
2019-04-29T00:48:55.565Z,5.50
2019-04-29T00:51:25.219Z,5.50
2019-04-29T00:53:59.350Z,5.50
2019-04-29T00:56:29.018Z,5.50
2019-04-29T00:58:58.730Z,5.50
2019-04-29T01:01:28.384Z,5.50
2019-04-29T01:03:58.019Z,5.40
2019-04-29T01:06:27.684Z,5.40
2019-04-29T01:08:57.238Z,5.40
2019-04-29T01:11:27.192Z,5.30
2019-04-29T01:13:56.820Z,5.30
2019-04-29T01:16:26.406Z,5.30
2019-04-29T01:18:56.011Z,5.20
2019-04-29T01:21:25.676Z,5.20
2019-04-29T01:23:55.160Z,5.20
2019-04-29T01:26:42.547Z,5.10
2019-04-29T01:29:13.045Z,5.10
2019-04-29T01:31:42.580Z,5.00
2019-04-29T01:34:17.848Z,5.00
2019-04-29T01:36:47.710Z,4.90
2019-04-29T01:39:17.256Z,5.00
2019-04-29T01:42:14.453Z,4.90
2019-04-29T01:44:43.937Z,4.90
2019-04-29T01:47:13.554Z,4.90
2019-04-29T01:49:43.219Z,4.90
2019-04-29T01:52:13.009Z,4.90
2019-04-29T01:54:42.620Z,4.90
2019-04-29T01:57:12.187Z,4.90
2019-04-29T01:59:41.769Z,4.90
2019-04-29T02:02:11.389Z,4.80
2019-04-29T02:04:41.032Z,4.80
2019-04-29T02:07:10.595Z,4.80
2019-04-29T02:10:04.844Z,4.80
2019-04-29T02:12:34.391Z,4.90
2019-04-29T02:15:04.397Z,4.90
2019-04-29T02:17:33.997Z,4.90
2019-04-29T02:20:03.560Z,5.00
2019-04-29T02:22:57.901Z,5.00
2019-04-29T02:25:34.815Z,4.90
2019-04-29T02:28:04.448Z,5.00
2019-04-29T02:30:42.370Z,5.10
2019-04-29T02:33:11.950Z,5.10
2019-04-29T02:35:41.482Z,5.10
2019-04-29T02:38:16.285Z,5.20
2019-04-29T02:40:52.608Z,5.20
2019-04-29T02:43:25.636Z,5.30
2019-04-29T02:45:55.101Z,5.30
2019-04-29T02:48:28.641Z,5.30
2019-04-29T02:50:55.841Z,5.30
2019-04-29T02:53:25.357Z,5.30
2019-04-29T02:55:56.663Z,5.30
2019-04-29T02:58:44.022Z,5.30
2019-04-29T03:01:35.557Z,5.40
2019-04-29T03:04:15.216Z,5.50
2019-04-29T03:06:44.791Z,5.40
2019-04-29T03:09:14.334Z,5.50
2019-04-29T03:11:43.950Z,5.50
2019-04-29T03:14:13.629Z,5.50
2019-04-29T03:16:43.071Z,5.50
2019-04-29T03:19:18.874Z,5.60
2019-04-29T03:21:51.922Z,5.60
2019-04-29T03:24:21.471Z,5.60
2019-04-29T03:26:50.982Z,5.60
2019-04-29T03:29:23.602Z,5.70
2019-04-29T03:31:54.996Z,5.70
2019-04-29T03:34:24.496Z,5.70
2019-04-29T03:36:54.229Z,5.70
2019-04-29T03:39:23.795Z,5.80
2019-04-29T03:41:53.540Z,5.80
2019-04-29T03:44:23.063Z,5.70
2019-04-29T03:46:52.447Z,5.80
2019-04-29T03:49:22.043Z,5.80
2019-04-29T03:51:51.528Z,5.90
2019-04-29T03:54:20.931Z,5.80
2019-04-29T03:56:50.364Z,5.80
2019-04-29T03:59:19.904Z,5.80
2019-04-29T04:01:59.002Z,5.80
2019-04-29T04:04:46.184Z,5.80
2019-04-29T04:07:49.817Z,5.90
2019-04-29T04:10:19.424Z,5.90
2019-04-29T04:12:49.068Z,6.00
2019-04-29T04:15:18.606Z,6.00
2019-04-29T04:18:02.300Z,6.10
2019-04-29T04:20:31.752Z,6.30
2019-04-29T04:23:01.179Z,6.20
2019-04-29T04:25:30.691Z,6.10
2019-04-29T04:28:00.209Z,6.10
2019-04-29T04:30:29.737Z,6.20
2019-04-29T04:32:59.311Z,6.20
2019-04-29T04:35:28.789Z,6.20
2019-04-29T04:37:58.457Z,6.30
2019-04-29T04:40:38.226Z,6.30
2019-04-29T04:43:07.760Z,6.40
2019-04-29T04:45:37.383Z,6.50
2019-04-29T04:48:07.017Z,6.60
2019-04-29T04:50:36.552Z,6.60
2019-04-29T04:53:06.195Z,6.60
2019-04-29T04:55:37.302Z,6.60
2019-04-29T04:58:06.914Z,6.40
2019-04-29T05:00:37.617Z,6.50
2019-04-29T05:03:07.200Z,6.50
2019-04-29T05:05:36.754Z,6.60
2019-04-29T05:08:06.420Z,6.80
2019-04-29T05:10:35.952Z,6.80
2019-04-29T05:13:05.473Z,6.80
2019-04-29T05:15:35.074Z,6.90
2019-04-29T05:18:04.623Z,7.00
2019-04-29T05:20:34.190Z,7.00
2019-04-29T05:23:03.847Z,6.90
2019-04-29T05:25:34.615Z,7.00
2019-04-29T05:28:10.797Z,7.20
2019-04-29T05:30:42.063Z,7.30
2019-04-29T05:33:11.630Z,7.40
2019-04-29T05:35:56.810Z,7.60
2019-04-29T05:38:37.463Z,7.70
2019-04-29T05:41:07.230Z,7.80
2019-04-29T05:43:58.919Z,7.90
2019-04-29T05:46:36.783Z,8.20
2019-04-29T05:49:10.854Z,8.30
2019-04-29T05:52:01.824Z,8.60
2019-04-29T05:54:31.646Z,8.80
2019-04-29T05:57:00.293Z,9.00
2019-04-29T05:59:29.990Z,9.30
2019-04-29T06:01:59.641Z,9.50
2019-04-29T06:04:29.223Z,9.70
2019-04-29T06:06:58.790Z,9.70
2019-04-29T06:09:28.481Z,10.20
2019-04-29T06:11:58.059Z,10.10
2019-04-29T06:14:27.721Z,10.70
2019-04-29T06:17:02.213Z,10.90
2019-04-29T06:19:28.559Z,11.00
2019-04-29T06:21:58.112Z,11.10
2019-04-29T06:24:27.583Z,11.50
2019-04-29T06:26:57.301Z,12.00
2019-04-29T06:29:26.854Z,12.10
2019-04-29T06:31:59.247Z,12.20
2019-04-29T06:34:28.933Z,12.50
2019-04-29T06:36:58.915Z,12.50
2019-04-29T06:39:28.709Z,12.80
2019-04-29T06:41:58.167Z,12.90
2019-04-29T06:44:27.735Z,13.60
2019-04-29T06:46:57.356Z,13.40
2019-04-29T06:49:26.903Z,13.20
2019-04-29T06:51:56.523Z,13.20
2019-04-29T06:54:26.318Z,13.60
2019-04-29T06:56:55.955Z,13.70
2019-04-29T06:59:25.461Z,13.70
2019-04-29T07:01:54.979Z,13.40
2019-04-29T07:04:24.526Z,13.50
2019-04-29T07:06:57.607Z,13.70
2019-04-29T07:09:25.430Z,13.50
2019-04-29T07:12:01.121Z,13.50
2019-04-29T07:14:28.329Z,13.40
2019-04-29T07:17:00.938Z,12.50
2019-04-29T07:19:28.765Z,13.10
2019-04-29T07:21:58.400Z,13.60
2019-04-29T07:24:28.004Z,14.00
2019-04-29T07:26:57.754Z,14.20
2019-04-29T07:29:32.078Z,13.90
2019-04-29T07:32:00.022Z,13.60
2019-04-29T07:34:33.692Z,12.90
2019-04-29T07:37:00.793Z,12.50
2019-04-29T07:39:31.835Z,12.10
2019-04-29T07:42:03.301Z,11.50
2019-04-29T07:44:44.164Z,11.70
2019-04-29T07:47:15.362Z,11.80
2019-04-29T07:49:47.309Z,11.80
2019-04-29T07:52:16.209Z,11.20
2019-04-29T07:54:48.299Z,11.40
2019-04-29T07:57:18.079Z,11.30
2019-04-29T07:59:47.780Z,11.30
2019-04-29T08:02:17.498Z,11.10
2019-04-29T08:04:47.084Z,11.20
2019-04-29T08:07:17.714Z,11.20
2019-04-29T08:09:47.800Z,11.30
2019-04-29T08:12:18.438Z,11.30
2019-04-29T08:14:53.385Z,11.20
2019-04-29T08:17:20.756Z,11.30
2019-04-29T08:19:50.380Z,11.30
2019-04-29T08:22:22.952Z,11.30
2019-04-29T08:24:52.173Z,11.30
2019-04-29T08:27:21.892Z,11.60
2019-04-29T08:29:51.479Z,11.40
2019-04-29T08:32:21.050Z,11.20
2019-04-29T08:34:53.705Z,11.10
2019-04-29T08:37:24.728Z,11.00
2019-04-29T08:40:08.511Z,11.30
2019-04-29T08:42:27.743Z,11.40
2019-04-29T08:45:34.729Z,11.60
2019-04-29T08:48:06.010Z,11.90
2019-04-29T08:50:35.450Z,12.20
2019-04-29T08:53:05.235Z,12.20
2019-04-29T08:55:36.545Z,12.50
2019-04-29T08:58:07.056Z,12.60
2019-04-29T09:00:37.235Z,13.00
2019-04-29T09:03:06.891Z,13.10
2019-04-29T09:05:36.443Z,13.40
2019-04-29T09:08:05.992Z,13.70
2019-04-29T09:10:36.730Z,14.10
2019-04-29T09:13:06.826Z,14.40
2019-04-29T09:15:36.647Z,14.50
2019-04-29T09:18:06.190Z,14.20
2019-04-29T09:20:35.829Z,14.40
2019-04-29T09:23:08.507Z,14.40
2019-04-29T09:26:02.956Z,14.00
2019-04-29T09:28:29.834Z,13.80
2019-04-29T09:30:59.461Z,13.60
2019-04-29T09:33:29.183Z,13.30
2019-04-29T09:35:58.680Z,13.50
2019-04-29T09:38:28.317Z,13.60
2019-04-29T09:41:14.420Z,13.50
2019-04-29T09:44:06.881Z,13.50
2019-04-29T09:46:36.603Z,13.60
2019-04-29T09:49:08.534Z,13.20
2019-04-29T09:51:38.104Z,13.60
2019-04-29T09:54:09.595Z,13.90
2019-04-29T09:56:38.852Z,13.80
2019-04-29T09:59:42.283Z,13.80
2019-04-29T10:02:31.437Z,13.70
2019-04-29T10:05:29.677Z,13.70
2019-04-29T10:07:59.363Z,13.40
2019-04-29T10:10:29.114Z,12.70
2019-04-29T10:12:58.827Z,13.40
2019-04-29T10:15:39.261Z,13.90
2019-04-29T10:18:18.575Z,14.00
2019-04-29T10:20:51.464Z,13.80
2019-04-29T10:23:21.023Z,13.80
2019-04-29T10:25:50.581Z,13.90
2019-04-29T10:28:20.182Z,13.70
2019-04-29T10:30:49.879Z,13.60
2019-04-29T10:33:22.933Z,13.90
2019-04-29T10:35:51.457Z,13.80
2019-04-29T10:38:20.981Z,13.90
2019-04-29T10:41:05.067Z,13.50
2019-04-29T10:43:56.452Z,13.10
2019-04-29T10:46:43.557Z,13.20
2019-04-29T10:49:39.191Z,13.20
2019-04-29T10:52:09.522Z,13.00
2019-04-29T10:54:39.091Z,13.00
2019-04-29T10:57:10.467Z,13.00
2019-04-29T10:59:44.985Z,13.00
2019-04-29T11:02:30.476Z,13.00
2019-04-29T11:05:11.911Z,13.10
2019-04-29T11:07:42.228Z,13.10
2019-04-29T11:10:25.312Z,12.90
2019-04-29T11:12:50.368Z,12.60
2019-04-29T11:15:21.896Z,12.50
2019-04-29T11:17:59.176Z,12.60
2019-04-29T11:20:24.488Z,12.20
2019-04-29T11:23:09.163Z,12.10
2019-04-29T11:25:51.340Z,12.20
2019-04-29T11:28:21.085Z,12.00
2019-04-29T11:30:50.780Z,11.80
2019-04-29T11:33:27.624Z,11.90
2019-04-29T11:36:08.241Z,11.50
2019-04-29T11:38:38.611Z,11.30
2019-04-29T11:41:12.230Z,11.20
2019-04-29T11:43:39.594Z,11.20
2019-04-29T11:46:10.052Z,11.00
2019-04-29T11:48:40.859Z,10.80
2019-04-29T11:51:25.744Z,10.80
2019-04-29T11:53:55.264Z,10.70
2019-04-29T11:56:25.142Z,10.70
2019-04-29T11:59:07.417Z,10.80
2019-04-29T12:01:50.858Z,10.90
2019-04-29T12:04:36.330Z,11.00
2019-04-29T12:07:06.112Z,11.10
2019-04-29T12:09:35.701Z,11.30
2019-04-29T12:12:07.887Z,11.50
2019-04-29T12:14:45.404Z,11.80
2019-04-29T12:17:24.291Z,11.90
2019-04-29T12:19:56.569Z,12.10
2019-04-29T12:22:30.571Z,12.40
2019-04-29T12:24:57.371Z,12.10
2019-04-29T12:27:29.168Z,11.80
2019-04-29T12:29:59.605Z,11.50
2019-04-29T12:32:36.576Z,11.40
2019-04-29T12:35:21.730Z,11.30
2019-04-29T12:38:11.268Z,11.40
2019-04-29T12:41:20.509Z,11.40
2019-04-29T12:44:04.149Z,11.50
2019-04-29T12:46:41.445Z,11.50
2019-04-29T12:49:13.598Z,11.30
2019-04-29T12:51:42.163Z,11.10
2019-04-29T12:54:11.615Z,11.20
2019-04-29T12:56:43.258Z,11.20
2019-04-29T12:59:12.934Z,11.20
2019-04-29T13:02:07.140Z,10.90
2019-04-29T13:04:51.376Z,10.60
2019-04-29T13:07:43.243Z,10.60
2019-04-29T13:10:17.967Z,10.70
2019-04-29T13:12:47.671Z,10.70
2019-04-29T13:15:49.696Z,10.70
2019-04-29T13:18:38.278Z,10.60
2019-04-29T13:21:10.390Z,10.50
2019-04-29T13:23:55.004Z,10.10
2019-04-29T13:26:10.364Z,9.90
2019-04-29T13:28:58.466Z,9.80
2019-04-29T13:31:11.248Z,9.80
2019-04-29T13:33:40.849Z,9.90
2019-04-29T13:36:10.520Z,9.90
2019-04-29T13:38:40.067Z,9.90
2019-04-29T13:41:13.775Z,9.80
2019-04-29T13:43:41.064Z,9.60
2019-04-29T13:46:28.201Z,9.50
2019-04-29T13:49:19.535Z,9.50
2019-04-29T13:51:49.003Z,9.50
2019-04-29T13:54:18.724Z,9.60
2019-04-29T13:56:56.028Z,9.60
2019-04-29T13:59:26.422Z,9.50
2019-04-29T14:02:07.357Z,9.50
2019-04-29T14:04:37.658Z,9.60
2019-04-29T14:07:07.266Z,9.50
2019-04-29T14:09:39.178Z,9.60
2019-04-29T14:12:46.698Z,9.50
2019-04-29T14:14:39.595Z,9.40
2019-04-29T14:17:25.358Z,9.30
2019-04-29T14:19:42.643Z,9.40
2019-04-29T14:22:21.900Z,9.40
2019-04-29T14:24:46.695Z,9.40
2019-04-29T14:27:24.703Z,9.40
2019-04-29T14:29:46.436Z,9.40
2019-04-29T14:32:18.410Z,9.30
2019-04-29T14:34:58.852Z,9.20
2019-04-29T14:37:37.086Z,9.20
2019-04-29T14:40:09.286Z,9.20
2019-04-29T14:43:03.053Z,9.30
2019-04-29T14:45:39.104Z,9.30
2019-04-29T14:48:41.693Z,9.40
2019-04-29T14:51:02.723Z,9.40
2019-04-29T14:53:32.294Z,9.20
2019-04-29T14:56:02.039Z,9.20
2019-04-29T14:58:31.546Z,9.20
2019-04-29T15:01:08.712Z,9.10
2019-04-29T15:03:58.566Z,9.20
2019-04-29T15:06:29.088Z,9.10
2019-04-29T15:08:59.219Z,9.00
2019-04-29T15:11:34.162Z,8.90
2019-04-29T15:14:26.059Z,8.80
2019-04-29T15:17:02.121Z,8.90
2019-04-29T15:20:11.535Z,8.80
2019-04-29T15:22:41.262Z,8.70
2019-04-29T15:25:11.334Z,8.80
2019-04-29T15:27:41.039Z,8.70
2019-04-29T15:30:10.840Z,8.70
2019-04-29T15:32:40.472Z,8.70
2019-04-29T15:35:10.023Z,8.80
2019-04-29T15:37:39.640Z,8.70
2019-04-29T15:40:09.658Z,8.70
2019-04-29T15:42:42.762Z,8.60
2019-04-29T15:45:11.361Z,8.50
2019-04-29T15:47:41.630Z,8.50
2019-04-29T15:50:18.904Z,8.50
2019-04-29T15:52:43.933Z,8.40
2019-04-29T15:55:13.516Z,8.30
2019-04-29T15:57:49.558Z,8.30
2019-04-29T16:00:22.142Z,8.30
2019-04-29T16:02:46.987Z,8.30
2019-04-29T16:05:54.156Z,8.40
2019-04-29T16:08:31.600Z,8.30
2019-04-29T16:11:29.433Z,8.40
2019-04-29T16:16:28.480Z,8.40
2019-04-29T16:19:06.786Z,8.30
2019-04-29T16:21:32.386Z,8.30
2019-04-29T16:24:00.718Z,8.30
2019-04-29T16:26:32.022Z,8.40
2019-04-29T16:29:01.691Z,8.30
2019-04-29T16:31:31.386Z,8.20
2019-04-29T16:34:01.059Z,8.20
2019-04-29T16:36:30.693Z,8.30
2019-04-29T16:39:00.203Z,8.20
2019-04-29T16:42:01.271Z,8.20
2019-04-29T16:44:36.260Z,8.20
2019-04-29T16:47:07.360Z,8.20
2019-04-29T16:49:33.479Z,8.20
2019-04-29T16:52:03.253Z,8.10
2019-04-29T16:54:32.814Z,8.10
2019-04-29T16:57:02.350Z,8.20
2019-04-29T16:59:31.967Z,8.10
2019-04-29T17:02:01.468Z,8.10
2019-04-29T17:04:31.139Z,8.00
2019-04-29T17:07:12.459Z,8.00
2019-04-29T17:09:42.184Z,7.90
2019-04-29T17:12:11.905Z,7.80
2019-04-29T17:15:02.175Z,7.80
2019-04-29T17:17:17.271Z,7.80
2019-04-29T17:19:46.737Z,7.90
2019-04-29T17:24:47.875Z,7.80
2019-04-29T17:27:25.044Z,7.80
2019-04-29T17:30:22.431Z,7.80
2019-04-29T17:33:28.358Z,7.80
2019-04-29T17:35:16.714Z,7.80
2019-04-29T17:35:17.103Z,8.40
2019-04-29T17:35:51.650Z,7.70
2019-04-29T17:38:21.226Z,7.70
2019-04-29T17:40:51.459Z,7.60
2019-04-29T17:43:38.396Z,7.60
2019-04-29T17:46:19.802Z,7.60
2019-04-29T17:49:11.789Z,7.60
2019-04-29T17:51:41.353Z,7.60
2019-04-29T17:54:12.819Z,7.50
2019-04-29T17:57:24.530Z,7.50
2019-04-29T18:00:05.066Z,7.50
2019-04-29T18:03:00.681Z,7.50
2019-04-29T18:05:54.327Z,7.40
2019-04-29T18:08:20.761Z,7.40
2019-04-29T18:10:55.602Z,7.40
2019-04-29T18:13:26.488Z,7.40
2019-04-29T18:16:01.630Z,7.50
2019-04-29T18:18:46.080Z,7.50
2019-04-29T18:21:32.181Z,7.60
2019-04-29T18:24:37.368Z,7.60
2019-04-29T18:27:18.084Z,7.50
2019-04-29T18:29:47.648Z,7.50
2019-04-29T18:32:17.080Z,7.50
2019-04-29T18:34:46.662Z,7.50
2019-04-29T18:37:16.739Z,7.50
2019-04-29T18:39:46.358Z,7.60
2019-04-29T18:42:16.020Z,7.60
2019-04-29T18:44:54.935Z,7.60
2019-04-29T18:47:22.480Z,7.50
2019-04-29T18:49:47.803Z,7.50
2019-04-29T18:52:25.387Z,7.50
2019-04-29T18:54:48.389Z,7.50
2019-04-29T18:57:27.677Z,7.50
2019-04-29T18:59:49.219Z,7.50
2019-04-29T19:02:18.726Z,7.50
2019-04-29T19:05:02.724Z,7.50
2019-04-29T19:07:37.236Z,7.50
2019-04-29T19:10:09.005Z,7.50
2019-04-29T19:12:39.112Z,7.50
2019-04-29T19:15:11.512Z,7.60
2019-04-29T19:17:39.990Z,7.50
2019-04-29T19:20:12.930Z,7.50
2019-04-29T19:22:44.134Z,7.50
2019-04-29T19:25:12.787Z,7.50
2019-04-29T19:27:42.638Z,7.50
2019-04-29T19:30:20.358Z,7.40
2019-04-29T19:32:46.885Z,7.50
2019-04-29T19:35:17.648Z,7.50
2019-04-29T19:37:47.275Z,7.40
2019-04-29T19:40:16.894Z,7.40
2019-04-29T19:42:47.110Z,7.40
2019-04-29T19:45:17.437Z,7.40
2019-04-29T19:47:52.994Z,7.40
2019-04-29T19:50:19.685Z,7.30
2019-04-29T19:52:49.444Z,7.30
2019-04-29T19:55:18.958Z,7.30
2019-04-29T19:57:52.175Z,7.30
2019-04-29T20:00:28.102Z,7.30
2019-04-29T20:02:51.411Z,7.30
2019-04-29T20:05:31.637Z,7.30
2019-04-29T20:07:59.082Z,7.30
2019-04-29T20:10:29.902Z,7.30
2019-04-29T20:13:00.351Z,7.30
2019-04-29T20:15:33.965Z,7.30
2019-04-29T20:21:24.619Z,7.20
2019-04-29T20:21:28.922Z,7.30
2019-04-29T20:23:46.625Z,7.30
2019-04-29T20:26:23.395Z,7.30
2019-04-29T20:28:51.094Z,7.30
2019-04-29T20:31:22.344Z,7.30
2019-04-29T20:33:50.309Z,7.30
2019-04-29T20:36:33.114Z,7.30
2019-04-29T20:38:51.143Z,7.30
2019-04-29T20:41:37.001Z,7.30
2019-04-29T20:43:52.148Z,7.30
2019-04-29T20:46:21.906Z,7.30
2019-04-29T20:48:55.717Z,7.30
2019-04-29T20:51:27.415Z,7.30
2019-04-29T20:53:59.918Z,7.20
2019-04-29T20:56:34.866Z,7.30
2019-04-29T20:59:02.049Z,7.20
2019-04-29T21:01:38.658Z,7.20
2019-04-29T21:04:06.963Z,7.20
2019-04-29T21:06:43.631Z,7.20
2019-04-29T21:09:08.512Z,7.20
2019-04-29T21:11:45.652Z,7.30
2019-04-29T21:14:27.184Z,7.30
2019-04-29T21:16:57.575Z,7.30
2019-04-29T21:19:27.140Z,7.20
2019-04-29T21:21:56.556Z,7.20
2019-04-29T21:24:26.112Z,7.20
2019-04-29T21:26:57.380Z,7.20
2019-04-29T21:29:27.051Z,7.30
2019-04-29T21:32:01.473Z,7.20
2019-04-29T21:34:37.056Z,7.20
2019-04-29T21:37:26.295Z,7.20
2019-04-29T21:40:18.581Z,7.20
2019-04-29T21:43:13.636Z,7.20
2019-04-29T21:45:39.850Z,7.20
2019-04-29T21:48:10.002Z,7.20
2019-04-29T21:50:39.633Z,7.20
2019-04-29T21:53:09.203Z,7.20
2019-04-29T21:55:38.773Z,7.20
2019-04-29T21:58:08.337Z,7.20
2019-04-29T22:00:40.886Z,7.20
2019-04-29T22:03:10.335Z,7.20
2019-04-29T22:05:39.704Z,7.20
2019-04-29T22:08:09.073Z,7.20
2019-04-29T22:10:38.590Z,7.20
2019-04-29T22:13:09.138Z,7.20
2019-04-29T22:15:42.302Z,7.20
2019-04-29T22:18:13.903Z,7.20
2019-04-29T22:20:42.321Z,7.20
2019-04-29T22:23:13.441Z,7.20
2019-04-29T22:25:45.751Z,7.20
2019-04-29T22:28:15.999Z,7.20
2019-04-29T22:30:49.773Z,7.20
2019-04-29T22:33:17.667Z,7.20
2019-04-29T22:35:47.140Z,7.20
2019-04-29T22:38:18.720Z,7.20
2019-04-29T22:40:48.558Z,7.20
2019-04-29T22:43:44.601Z,7.10
2019-04-29T22:46:15.690Z,7.20
2019-04-29T22:48:48.442Z,7.20
2019-04-29T22:51:18.825Z,7.20
2019-04-29T22:53:48.330Z,7.20
2019-04-29T22:56:17.792Z,7.20
2019-04-29T22:58:47.572Z,7.20
2019-04-29T23:01:17.851Z,7.20
2019-04-29T23:03:47.443Z,7.20
2019-04-29T23:06:17.246Z,7.20
2019-04-29T23:08:48.064Z,7.20
2019-04-29T23:11:17.593Z,7.20
2019-04-29T23:13:49.051Z,7.20
2019-04-29T23:16:18.364Z,7.20
2019-04-29T23:18:47.883Z,7.20
2019-04-29T23:21:43.001Z,7.20
2019-04-29T23:24:26.112Z,7.20
2019-04-29T23:26:55.687Z,7.20
2019-04-29T23:29:25.479Z,7.20
2019-04-29T23:31:55.419Z,7.10
2019-04-29T23:34:29.136Z,7.10
2019-04-29T23:36:56.110Z,7.10
2019-04-29T23:39:25.568Z,7.10
2019-04-29T23:41:55.466Z,7.20
2019-04-29T23:44:25.152Z,7.10
2019-04-29T23:46:54.609Z,7.10
2019-04-29T23:49:25.019Z,7.20
2019-04-29T23:51:54.544Z,7.10
2019-04-29T23:54:25.181Z,7.10
2019-04-29T23:57:23.802Z,7.10
